createdAt,value
2022-10-27T00:01:41.040Z,4041.1
2022-10-27T00:07:16.064Z,4041.1
2022-10-27T00:12:54.472Z,4042.1
2022-10-27T00:18:33.733Z,4041.6
2022-10-27T00:24:08.595Z,4040.4
2022-10-27T00:30:04.395Z,4039.6
2022-10-27T00:35:44.203Z,4040.8
2022-10-27T00:41:41.111Z,4039.4
2022-10-27T00:47:17.742Z,4039.9
2022-10-27T00:52:52.480Z,4040.3
2022-10-27T00:58:43.962Z,4039.4
2022-10-27T01:04:27.909Z,4039.9
2022-10-27T01:10:02.709Z,4038.9
2022-10-27T01:16:00.900Z,4039.6
2022-10-27T01:21:40.532Z,4041.4
2022-10-27T01:27:20.871Z,4039.1
2022-10-27T01:33:04.560Z,4040.4
2022-10-27T01:38:42.235Z,4038.6
2022-10-27T01:44:20.093Z,4038.3
2022-10-27T01:49:54.951Z,4040.4
2022-10-27T01:55:51.058Z,4038.3
2022-10-27T02:01:37.811Z,4038.1
2022-10-27T02:07:18.053Z,4040.3
2022-10-27T02:12:59.457Z,4038.3
2022-10-27T02:18:52.570Z,4039.4
2022-10-27T02:24:47.467Z,4038.1
2022-10-27T02:30:31.212Z,4038.3
2022-10-27T02:36:05.912Z,4037.4
2022-10-27T02:42:02.456Z,4036.6
2022-10-27T02:47:38.035Z,4036.9
2022-10-27T02:53:22.510Z,4038.4
2022-10-27T02:59:39.196Z,4038.1
2022-10-27T03:05:14.699Z,4036.8
2022-10-27T03:10:58.050Z,4037.1
2022-10-27T03:16:40.265Z,4036.1
2022-10-27T03:22:19.357Z,4037.1
2022-10-27T03:28:00.935Z,4037.4
2022-10-27T03:33:44.845Z,4036.9
2022-10-27T03:39:20.004Z,4037.1
2022-10-27T03:44:54.902Z,4035.1
2022-10-27T03:50:33.057Z,4038.3
2022-10-27T03:56:28.534Z,4035.9
2022-10-27T04:02:16.615Z,4033.9
2022-10-27T04:07:51.761Z,4036.2
2022-10-27T04:13:32.067Z,4037.3
2022-10-27T04:19:31.276Z,4035.4
2022-10-27T04:25:06.578Z,4037.3
2022-10-27T04:30:41.641Z,4037.4
2022-10-27T04:36:22.276Z,4034.7
2022-10-27T04:42:27.220Z,4033.2
2022-10-27T04:48:17.475Z,4034.9
2022-10-27T04:56:50.477Z,4035.1
2022-10-27T05:02:36.338Z,4032.7
2022-10-27T05:08:42.701Z,4034.9
2022-10-27T05:14:17.795Z,4032.9
2022-10-27T05:20:13.979Z,4034.9
2022-10-27T05:26:05.104Z,4033.4
2022-10-27T05:31:48.736Z,4032.2
2022-10-27T05:37:31.707Z,4034.7
2022-10-27T05:43:43.328Z,4029.4
2022-10-27T05:49:22.894Z,4033.1
2022-10-27T05:55:44.376Z,4033.1
2022-10-27T06:01:29.539Z,4033.6
2022-10-27T06:07:05.736Z,4030.9
2022-10-27T06:12:40.550Z,4031.6
2022-10-27T06:18:42.440Z,4031.9
2022-10-27T06:24:25.145Z,4031.7
2022-10-27T06:30:09.414Z,4030.2
2022-10-27T06:35:46.481Z,4032.7
2022-10-27T06:41:43.259Z,4028.9
2022-10-27T06:47:21.805Z,4029.4
2022-10-27T06:52:58.085Z,4029.5
2022-10-27T06:58:33.159Z,4029.5
2022-10-27T07:04:15.966Z,4028.5
2022-10-27T07:09:55.336Z,4029.5
2022-10-27T07:16:15.170Z,4028.5
2022-10-27T07:21:53.025Z,4031.4
2022-10-27T07:28:02.730Z,4029.5
2022-10-27T07:34:05.209Z,4028.5
2022-10-27T07:39:48.243Z,4027.5
2022-10-27T07:45:23.522Z,4026.2
2022-10-27T07:51:03.689Z,4026.4
2022-10-27T07:56:40.181Z,4027.9
2022-10-27T08:02:16.907Z,4026.2
2022-10-27T08:08:15.866Z,4030.2
2022-10-27T08:13:51.005Z,4025.7
2022-10-27T08:19:41.559Z,4027.7
2022-10-27T08:25:17.554Z,4028.4
2022-10-27T08:30:56.702Z,4026
2022-10-27T08:36:31.555Z,4027.7
2022-10-27T08:42:28.055Z,4022.2
2022-10-27T08:48:41.329Z,4022.2
2022-10-27T08:54:34.712Z,4023.7
2022-10-27T09:00:18.868Z,4027.2
2022-10-27T09:06:00.619Z,4021.5
2022-10-27T09:11:38.359Z,4026.2
2022-10-27T09:17:13.438Z,4021.7
2022-10-27T09:22:58.651Z,4025.2
2022-10-27T09:28:54.716Z,4020.5
2022-10-27T09:34:41.619Z,4019.7
2022-10-27T09:40:16.709Z,4022.5
2022-10-27T09:45:57.644Z,4020.2
2022-10-27T09:51:32.875Z,4021.7
2022-10-27T09:57:07.456Z,4022
2022-10-27T10:03:11.699Z,4018.3
2022-10-27T10:08:46.687Z,4021
2022-10-27T10:14:22.059Z,4024.9
2022-10-27T10:20:04.420Z,4019.8
2022-10-27T10:25:39.359Z,4019.7
2022-10-27T10:31:14.340Z,4018.8
2022-10-27T10:36:49.297Z,4018.3
2022-10-27T10:42:26.975Z,4019.7
2022-10-27T10:48:08.834Z,4017
2022-10-27T10:53:44.283Z,4017.5
2022-10-27T10:59:19.089Z,4017.3
2022-10-27T11:04:57.909Z,4014.5
2022-10-27T11:10:32.931Z,4016.3
2022-10-27T11:16:11.081Z,4015.8
2022-10-27T11:21:58.403Z,4014.8
2022-10-27T11:27:41.020Z,4014.6
2022-10-27T11:33:15.819Z,4014.3
2022-10-27T11:38:51.758Z,4015
2022-10-27T11:44:27.156Z,4013
2022-10-27T11:50:02.549Z,4013.1
2022-10-27T11:55:39.708Z,4013.3
2022-10-27T12:01:15.756Z,4010.6
2022-10-27T12:06:58.631Z,4012.1
2022-10-27T12:12:35.830Z,4011.5
2022-10-27T12:18:11.425Z,4010.3
2022-10-27T12:23:46.407Z,4010.8
2022-10-27T12:29:22.172Z,4011.5
2022-10-27T12:34:57.280Z,4010.3
2022-10-27T12:40:33.304Z,4009.3
2022-10-27T12:46:32.851Z,4010.8
2022-10-27T12:52:08.394Z,4011.1
2022-10-27T12:57:47.604Z,4008.4
2022-10-27T13:03:23.646Z,4010.6
2022-10-27T13:09:01.831Z,4008.6
2022-10-27T13:14:39.554Z,4009.9
2022-10-27T13:20:14.793Z,4007.8
2022-10-27T13:26:10.657Z,4006.1
2022-10-27T13:32:03.071Z,4006.9
2022-10-27T13:37:42.419Z,4006.6
2022-10-27T13:43:39.145Z,4002.4
2022-10-27T13:49:13.850Z,4004.9
2022-10-27T13:54:49.869Z,4003.4
2022-10-27T14:00:25.785Z,4001.9
2022-10-27T14:06:12.258Z,4002.6
2022-10-27T14:11:47.210Z,4000.7
2022-10-27T14:17:33.956Z,4003.1
2022-10-27T14:23:16.083Z,4000.1
2022-10-27T14:29:11.791Z,3997.6
2022-10-27T14:34:47.392Z,4000.2
2022-10-27T14:40:44.271Z,3997.2
2022-10-27T14:46:17.635Z,3996.7
2022-10-27T14:51:52.643Z,3999.2
2022-10-27T14:57:30.248Z,3998.2
2022-10-27T15:03:06.671Z,3995.2
2022-10-27T15:08:46.328Z,3999.2
2022-10-27T15:14:56.642Z,3994.9
2022-10-27T15:20:32.545Z,3996
2022-10-27T15:26:17.622Z,3994
2022-10-27T15:32:11.152Z,3993.9
2022-10-27T15:37:47.605Z,3995.2
2022-10-27T15:43:44.219Z,3991.2
2022-10-27T15:49:21.421Z,3991.7
2022-10-27T15:54:57.637Z,3992.2
2022-10-27T16:00:35.364Z,3991.5
2022-10-27T16:06:13.762Z,3992.9
2022-10-27T16:12:04.102Z,3991.5
2022-10-27T16:17:43.486Z,3991.4
2022-10-27T16:23:18.574Z,3992
2022-10-27T16:29:10.861Z,3992.4
2022-10-27T16:34:45.790Z,3989.3
2022-10-27T16:40:50.395Z,3987.5
2022-10-27T16:46:45.337Z,3988.7
2022-10-27T16:52:24.480Z,3987.2
2022-10-27T16:58:01.307Z,3987.2
2022-10-27T17:03:43.583Z,3988.5
2022-10-27T17:09:27.670Z,3987
2022-10-27T17:15:07.238Z,3989
2022-10-27T17:20:44.767Z,3986.8
2022-10-27T17:26:27.514Z,3988.2
2022-10-27T17:32:02.394Z,3989
2022-10-27T17:37:58.847Z,3986
2022-10-27T17:43:55.749Z,3982.5
2022-10-27T17:49:49.828Z,3985.2
2022-10-27T17:55:53.039Z,3985
2022-10-27T18:01:57.589Z,3984.2
2022-10-27T18:07:52.942Z,3985.7
2022-10-27T18:14:10.044Z,3982.8
2022-10-27T18:19:56.378Z,3982.8
2022-10-27T18:25:43.446Z,3985
2022-10-27T18:31:18.395Z,3985.3
2022-10-27T18:36:53.639Z,3984.5
2022-10-27T18:43:02.297Z,3981
2022-10-27T18:48:41.449Z,3982.3
2022-10-27T18:54:20.897Z,3981
2022-10-27T19:00:03.918Z,3981.3
2022-10-27T19:05:39.144Z,3979.3
2022-10-27T19:11:25.603Z,3979.8
2022-10-27T19:17:04.668Z,3981.5
2022-10-27T19:22:49.137Z,3981
2022-10-27T19:28:33.548Z,3979.3
2022-10-27T19:34:09.089Z,3979.3
2022-10-27T19:39:53.972Z,3980
2022-10-27T19:45:55.884Z,3980
2022-10-27T19:51:40.846Z,3977.3
2022-10-27T19:57:23.343Z,3976.1
2022-10-27T20:03:04.097Z,3975.3
2022-10-27T20:08:55.108Z,3975.4
2022-10-27T20:14:55.250Z,3978.6
2022-10-27T20:20:37.736Z,3974.3
2022-10-27T20:26:39.380Z,3974.4
2022-10-27T20:32:25.584Z,3975.8
2022-10-27T20:38:32.411Z,3973.6
2022-10-27T20:44:44.767Z,3972.4
2022-10-27T20:50:20.314Z,3971.6
2022-10-27T20:56:02.545Z,3970.8
2022-10-27T21:01:40.288Z,3970.8
2022-10-27T21:07:48.735Z,3971.9
2022-10-27T21:13:27.482Z,3970.8
2022-10-27T21:19:14.263Z,3970.6
2022-10-27T21:25:03.141Z,3968.7
2022-10-27T21:30:39.336Z,3970.3
2022-10-27T21:36:33.103Z,3968.4
2022-10-27T21:42:29.816Z,3966.6
2022-10-27T21:48:02.644Z,3968.9
2022-10-27T21:53:50.000Z,3967.1
2022-10-27T21:59:25.206Z,3966.6
2022-10-27T22:05:21.296Z,3965.9
2022-10-27T22:10:56.324Z,3966.9
2022-10-27T22:16:35.319Z,3963.7
2022-10-27T22:22:10.245Z,3966.4
2022-10-27T22:27:45.996Z,3966.1
2022-10-27T22:33:22.338Z,3967.1
2022-10-27T22:39:14.167Z,3966.7
2022-10-27T22:44:58.762Z,3966.4
2022-10-27T22:50:33.950Z,3965.9
2022-10-27T22:56:08.642Z,3963.2
2022-10-27T23:01:46.517Z,3964.2
2022-10-27T23:07:22.256Z,3965.4
2022-10-27T23:13:35.917Z,3964.2
2022-10-27T23:19:56.938Z,3960.5
2022-10-27T23:25:44.122Z,3961.5
2022-10-27T23:31:40.358Z,3964.9
2022-10-27T23:37:15.242Z,3960.9
2022-10-27T23:43:12.088Z,3958.9
2022-10-27T23:48:50.567Z,3962
2022-10-27T23:54:26.397Z,3960.5
